TAP3178 SVMI-LPPT
Flight info
| Callsign | TAP3178 |
|---|---|
| Flight time | N/A |
| Altitude | 33000 |
| Route | VADOR2 MIQ UN669 OPUTU/N0490F350 UN669 ELJEZ/M083F350 DCT 20N055W 24N050W 28N045W 30N040W/M083F370 32N035W 33N030W 35N025W 36N020W DCT LUTAK/N0465F380 DCT ESUTI |
| Aircraft | A339/H-SADE1E2E3GHIJ3J5M1P2RWXY/LB2D1 |
Departure
| Time | 2026-05-05 03:20 |
|---|---|
| Airport | Maiquetía Simón Bolívar International Airport (SVMI) |
Arrival
| Time | N/A |
|---|---|
| Airport | Lisbon Humberto Delgado Airport (LPPT) |
| Time | Latitude | Longitude | Altitude | Speed | Heading |
|---|---|---|---|---|---|
| 2026-05-05 01:04 | 10.59820 | -67.00842 | 253 ft | 0 kts | 179° |
| 2026-05-05 03:11 | 10.59824 | -67.00842 | 252 ft | 2 kts | 179° |
| 2026-05-05 03:11 | 10.59841 | -67.00842 | 252 ft | 2 kts | 184° |
| 2026-05-05 03:12 | 10.59857 | -67.00840 | 252 ft | 2 kts | 189° |
| 2026-05-05 03:12 | 10.59873 | -67.00836 | 252 ft | 2 kts | 198° |
| 2026-05-05 03:12 | 10.59887 | -67.00830 | 252 ft | 2 kts | 210° |
| 2026-05-05 03:12 | 10.59899 | -67.00821 | 252 ft | 2 kts | 228° |
| 2026-05-05 03:13 | 10.59905 | -67.00811 | 252 ft | 2 kts | 254° |
| 2026-05-05 03:13 | 10.59907 | -67.00797 | 252 ft | 2 kts | 267° |
| 2026-05-05 03:13 | 10.59907 | -67.00789 | 252 ft | 0 kts | 267° |
| 2026-05-05 03:16 | 10.59907 | -67.00790 | 252 ft | 1 kts | 267° |
| 2026-05-05 03:16 | 10.59905 | -67.00827 | 252 ft | 11 kts | 267° |
| 2026-05-05 03:16 | 10.59899 | -67.00940 | 252 ft | 20 kts | 267° |
| 2026-05-05 03:16 | 10.59891 | -67.01088 | 252 ft | 23 kts | 259° |
| 2026-05-05 03:17 | 10.59900 | -67.01212 | 252 ft | 14 kts | 327° |
| 2026-05-05 03:17 | 10.59975 | -67.01230 | 252 ft | 10 kts | 348° |
| 2026-05-05 03:17 | 10.60057 | -67.01239 | 252 ft | 13 kts | 357° |
| 2026-05-05 03:17 | 10.60152 | -67.01244 | 252 ft | 14 kts | 357° |
| 2026-05-05 03:18 | 10.60252 | -67.01249 | 252 ft | 14 kts | 357° |
| 2026-05-05 03:18 | 10.60346 | -67.01245 | 252 ft | 11 kts | 46° |
| 2026-05-05 03:18 | 10.60367 | -67.01197 | 252 ft | 5 kts | 79° |
| 2026-05-05 03:18 | 10.60374 | -67.01145 | 252 ft | 10 kts | 81° |
| 2026-05-05 03:19 | 10.60392 | -67.00715 | 252 ft | 58 kts | 88° |
| 2026-05-05 03:19 | 10.60410 | -67.00172 | 252 ft | 102 kts | 88° |
| 2026-05-05 03:19 | 10.60440 | -66.99292 | 252 ft | 149 kts | 88° |
| 2026-05-05 03:20 | 10.60479 | -66.98089 | 347 ft | 186 kts | 88° |
| 2026-05-05 03:20 | 10.60529 | -66.96722 | 981 ft | 191 kts | 85° |
| 2026-05-05 03:20 | 10.60772 | -66.95412 | 1759 ft | 197 kts | 75° |
| 2026-05-05 03:20 | 10.61081 | -66.94008 | 2423 ft | 216 kts | 79° |
| 2026-05-05 03:21 | 10.61286 | -66.92973 | 2648 ft | 230 kts | 78° |
| 2026-05-05 03:21 | 10.61674 | -66.91496 | 2935 ft | 250 kts | 67° |
| 2026-05-05 03:21 | 10.62727 | -66.90105 | 3612 ft | 252 kts | 39° |
| 2026-05-05 03:21 | 10.64340 | -66.89305 | 3935 ft | 268 kts | 10° |
| 2026-05-05 03:22 | 10.66171 | -66.89384 | 4784 ft | 266 kts | 347° |
| 2026-05-05 03:22 | 10.67097 | -66.89586 | 4923 ft | 276 kts | 351° |
| 2026-05-05 03:22 | 10.68971 | -66.89746 | 5794 ft | 268 kts | 357° |
| 2026-05-05 03:22 | 10.70894 | -66.89848 | 6073 ft | 288 kts | 358° |
| 2026-05-05 03:23 | 10.72909 | -66.89873 | 6445 ft | 289 kts | 1° |
| 2026-05-05 03:23 | 10.74267 | -66.89867 | 6698 ft | 290 kts | 1° |
| 2026-05-05 03:23 | 10.76936 | -66.89826 | 7196 ft | 290 kts | 2° |
| 2026-05-05 03:23 | 10.78310 | -66.89792 | 7451 ft | 291 kts | 2° |
| 2026-05-05 03:24 | 10.80327 | -66.89734 | 7822 ft | 292 kts | 3° |
| 2026-05-05 03:24 | 10.82329 | -66.89669 | 8194 ft | 293 kts | 4° |
| 2026-05-05 03:24 | 10.84396 | -66.89593 | 8574 ft | 294 kts | 5° |
| 2026-05-05 03:24 | 10.86414 | -66.89426 | 8946 ft | 295 kts | 7° |
| 2026-05-05 03:25 | 10.86890 | -66.89387 | 9033 ft | 295 kts | 6° |
| 2026-05-05 03:26 | 10.87142 | -66.89367 | 9079 ft | 296 kts | 6° |
| 2026-05-05 03:26 | 10.89200 | -66.89206 | 9457 ft | 298 kts | 6° |
| 2026-05-05 03:26 | 10.91286 | -66.89038 | 9835 ft | 300 kts | 7° |
| 2026-05-05 03:27 | 10.93112 | -66.88890 | 10168 ft | 299 kts | 7° |
| 2026-05-05 03:27 | 10.95204 | -66.88718 | 10540 ft | 308 kts | 7° |
| 2026-05-05 03:27 | 10.97409 | -66.88541 | 10928 ft | 319 kts | 7° |
| 2026-05-05 03:27 | 10.99613 | -66.88310 | 11297 ft | 328 kts | 14° |
| 2026-05-05 03:28 | 11.01734 | -66.87473 | 11673 ft | 330 kts | 35° |
| 2026-05-05 03:28 | 11.03427 | -66.85857 | 12060 ft | 336 kts | 57° |
| 2026-05-05 03:28 | 11.04409 | -66.83708 | 12431 ft | 343 kts | 77° |
| 2026-05-05 03:28 | 11.04569 | -66.81230 | 12608 ft | 354 kts | 98° |
| 2026-05-05 03:29 | 11.04025 | -66.78761 | 12946 ft | 362 kts | 103° |
| 2026-05-05 03:29 | 11.03656 | -66.76179 | 13380 ft | 373 kts | 95° |
| 2026-05-05 03:29 | 11.03475 | -66.73640 | 14086 ft | 371 kts | 94° |
| 2026-05-05 03:29 | 11.03305 | -66.70960 | 14597 ft | 376 kts | 93° |
| 2026-05-05 03:30 | 11.03186 | -66.68292 | 15043 ft | 386 kts | 92° |
| 2026-05-05 03:30 | 11.03094 | -66.65565 | 15728 ft | 387 kts | 92° |
| 2026-05-05 03:30 | 11.03019 | -66.62804 | 16258 ft | 389 kts | 91° |
| 2026-05-05 03:30 | 11.02955 | -66.59979 | 16601 ft | 397 kts | 91° |
| 2026-05-05 03:31 | 11.02900 | -66.57186 | 17193 ft | 399 kts | 91° |
| 2026-05-05 03:31 | 11.02850 | -66.54379 | 17747 ft | 400 kts | 91° |
| 2026-05-05 03:31 | 11.02802 | -66.51509 | 18081 ft | 407 kts | 91° |
| 2026-05-05 03:31 | 11.02752 | -66.48633 | 18609 ft | 410 kts | 90° |
| 2026-05-05 03:32 | 11.02704 | -66.45751 | 19129 ft | 411 kts | 90° |
| 2026-05-05 03:32 | 11.02655 | -66.42811 | 19494 ft | 415 kts | 90° |
| 2026-05-05 03:32 | 11.02658 | -66.39875 | 19838 ft | 421 kts | 84° |
| 2026-05-05 03:32 | 11.03243 | -66.36952 | 20331 ft | 419 kts | 71° |
| 2026-05-05 03:33 | 11.04401 | -66.34193 | 20690 ft | 421 kts | 59° |
| 2026-05-05 03:33 | 11.06012 | -66.31712 | 20990 ft | 426 kts | 53° |
| 2026-05-05 03:33 | 11.07677 | -66.29199 | 21420 ft | 429 kts | 55° |
| 2026-05-05 03:33 | 11.09332 | -66.26671 | 21827 ft | 431 kts | 54° |
| 2026-05-05 03:34 | 11.11015 | -66.24129 | 22079 ft | 437 kts | 54° |
| 2026-05-05 03:34 | 11.12744 | -66.21532 | 22391 ft | 442 kts | 53° |
| 2026-05-05 03:34 | 11.14470 | -66.18955 | 22628 ft | 448 kts | 53° |
| 2026-05-05 03:34 | 11.16238 | -66.16328 | 23074 ft | 449 kts | 53° |
| 2026-05-05 03:35 | 11.18022 | -66.13683 | 23340 ft | 453 kts | 53° |
| 2026-05-05 03:35 | 11.19797 | -66.11053 | 23607 ft | 458 kts | 53° |
| 2026-05-05 03:35 | 11.21611 | -66.08369 | 24066 ft | 458 kts | 53° |
| 2026-05-05 03:35 | 11.23427 | -66.05682 | 24359 ft | 462 kts | 53° |
| 2026-05-05 03:36 | 11.25252 | -66.02983 | 24682 ft | 465 kts | 53° |
| 2026-05-05 03:36 | 11.27104 | -66.00245 | 24900 ft | 470 kts | 53° |
| 2026-05-05 03:36 | 11.28964 | -65.97496 | 25190 ft | 474 kts | 53° |
| 2026-05-05 03:36 | 11.30823 | -65.94749 | 25549 ft | 475 kts | 53° |
| 2026-05-05 03:37 | 11.32718 | -65.91948 | 25836 ft | 478 kts | 53° |
| 2026-05-05 03:37 | 11.34620 | -65.89139 | 26167 ft | 480 kts | 53° |
| 2026-05-05 03:37 | 11.36488 | -65.86379 | 26486 ft | 481 kts | 53° |
| 2026-05-05 03:37 | 11.38405 | -65.83546 | 26739 ft | 485 kts | 53° |
| 2026-05-05 03:38 | 11.40250 | -65.80821 | 27044 ft | 486 kts | 53° |
| 2026-05-05 03:38 | 11.42176 | -65.77974 | 27308 ft | 489 kts | 53° |
| 2026-05-05 03:38 | 11.44112 | -65.75109 | 27660 ft | 489 kts | 53° |
| 2026-05-05 03:38 | 11.46059 | -65.72218 | 27891 ft | 492 kts | 53° |
| 2026-05-05 03:39 | 11.47996 | -65.69343 | 28192 ft | 494 kts | 53° |
| 2026-05-05 03:39 | 11.49949 | -65.66446 | 28449 ft | 496 kts | 53° |
| 2026-05-05 03:39 | 11.51900 | -65.63552 | 28692 ft | 498 kts | 53° |
| 2026-05-05 03:39 | 11.53868 | -65.60634 | 28900 ft | 501 kts | 53° |
| 2026-05-05 03:40 | 11.55856 | -65.57685 | 29168 ft | 503 kts | 53° |
| 2026-05-05 03:40 | 11.57836 | -65.54748 | 29365 ft | 505 kts | 53° |
| 2026-05-05 03:40 | 11.59833 | -65.51787 | 29647 ft | 506 kts | 53° |
| 2026-05-05 03:40 | 11.61833 | -65.48820 | 29986 ft | 505 kts | 53° |
| 2026-05-05 03:41 | 11.63818 | -65.45876 | 30124 ft | 508 kts | 53° |
| 2026-05-05 03:41 | 11.65810 | -65.42921 | 30376 ft | 509 kts | 53° |
| 2026-05-05 03:41 | 11.67830 | -65.39930 | 30629 ft | 509 kts | 53° |
| 2026-05-05 03:41 | 11.69856 | -65.36989 | 30800 ft | 512 kts | 53° |
| 2026-05-05 03:42 | 11.71921 | -65.34003 | 31028 ft | 512 kts | 53° |